createdAt,value
2023-05-10T00:02:35.047Z,101085.91
2023-05-10T00:05:41.441Z,101155.66
2023-05-10T00:08:50.592Z,101145.19
2023-05-10T00:12:07.578Z,101124.00
2023-05-10T00:15:47.551Z,100946.09
2023-05-10T00:19:01.227Z,101153.16
2023-05-10T00:22:05.464Z,101145.97
2023-05-10T00:25:10.296Z,101148.66
2023-05-10T00:28:14.316Z,101151.09
2023-05-10T00:31:18.233Z,101144.66
2023-05-10T00:34:22.736Z,101149.84
2023-05-10T00:37:27.184Z,101150.50
2023-05-10T00:40:32.547Z,101143.22
2023-05-10T00:43:42.273Z,101136.00
2023-05-10T00:46:47.276Z,101136.97
2023-05-10T00:50:00.993Z,101153.13
2023-05-10T00:53:08.457Z,101143.56
2023-05-10T00:56:12.466Z,101136.84
2023-05-10T00:59:26.449Z,101138.72
2023-05-10T01:02:33.045Z,101159.72
2023-05-10T01:05:37.067Z,101150.94
2023-05-10T01:08:41.764Z,101149.53
2023-05-10T01:11:46.945Z,101167.63
2023-05-10T01:14:50.893Z,101159.88
2023-05-10T01:18:05.030Z,101172.41
2023-05-10T01:21:24.861Z,101176.00
2023-05-10T01:24:53.224Z,101161.66
2023-05-10T01:28:15.736Z,101167.00
2023-05-10T01:31:44.153Z,101161.13
2023-05-10T01:35:08.259Z,101145.63
2023-05-10T01:38:42.117Z,101161.31
2023-05-10T01:41:57.341Z,101169.50
2023-05-10T01:45:05.270Z,101171.09
2023-05-10T01:48:12.327Z,101160.63
2023-05-10T01:51:25.316Z,101146.78
2023-05-10T01:54:36.081Z,101156.81
2023-05-10T01:57:42.828Z,101164.69
2023-05-10T02:00:52.134Z,101135.91
2023-05-10T02:04:00.325Z,101164.03
2023-05-10T02:07:04.639Z,101154.88
2023-05-10T02:10:13.371Z,101156.66
2023-05-10T02:13:20.604Z,101140.34
2023-05-10T02:16:28.374Z,101164.50
2023-05-10T02:19:35.775Z,101150.31
2023-05-10T02:32:25.236Z,101062.75
2023-05-10T02:40:00.796Z,101167.81
2023-05-10T02:43:11.326Z,101182.56
2023-05-10T02:46:15.582Z,101153.06
2023-05-10T02:49:20.369Z,101162.84
2023-05-10T02:52:34.892Z,101153.44
2023-05-10T02:55:42.407Z,101175.53
2023-05-10T02:58:49.651Z,101142.00
2023-05-10T03:01:57.522Z,101168.00
2023-05-10T03:05:09.523Z,101168.97
2023-05-10T03:08:16.287Z,101161.56
2023-05-10T03:11:41.363Z,101160.41
2023-05-10T03:15:14.560Z,101165.28
2023-05-10T03:18:47.301Z,101166.91
2023-05-10T03:21:55.034Z,101177.75
2023-05-10T03:25:22.742Z,101179.09
2023-05-10T03:28:40.934Z,101096.63
2023-05-10T03:32:18.352Z,101103.59
2023-05-10T03:40:54.356Z,101076.75
2023-05-10T04:02:48.924Z,101021.91
2023-05-10T04:07:38.651Z,101010.56
2023-05-10T04:11:57.045Z,101174.19
2023-05-10T04:15:18.867Z,101114.38
2023-05-10T04:28:01.831Z,101153.00
2023-05-10T04:31:07.361Z,101142.22
2023-05-10T04:34:14.216Z,101079.63
2023-05-10T04:37:29.138Z,101123.00
2023-05-10T04:40:43.995Z,101145.91
2023-05-10T04:43:48.271Z,101094.88
2023-05-10T04:47:01.032Z,101106.31
2023-05-10T04:50:24.509Z,101131.69
2023-05-10T04:53:31.178Z,101106.00
2023-05-10T04:56:35.473Z,101099.06
2023-05-10T04:59:39.444Z,101091.25
2023-05-10T05:02:47.569Z,101117.28
2023-05-10T05:05:53.092Z,101110.44
2023-05-10T05:08:59.196Z,101088.66
2023-05-10T05:13:06.051Z,101048.84
2023-05-10T05:16:15.517Z,101069.09
2023-05-10T05:19:22.382Z,101097.63
2023-05-10T05:22:29.492Z,101062.94
2023-05-10T05:25:38.020Z,101083.31
2023-05-10T05:28:44.946Z,101086.50
2023-05-10T05:35:54.364Z,101077.25
2023-05-10T05:39:02.670Z,101092.56
2023-05-10T05:42:06.560Z,101098.66
2023-05-10T05:45:14.906Z,101088.53
2023-05-10T05:48:19.248Z,101079.34
2023-05-10T05:51:23.195Z,101083.09
2023-05-10T05:54:27.316Z,101088.66
2023-05-10T05:57:31.435Z,101082.91
2023-05-10T06:00:38.774Z,101085.00
2023-05-10T06:03:44.307Z,101069.00
2023-05-10T06:06:50.283Z,101079.09
2023-05-10T06:09:57.525Z,101089.81
2023-05-10T06:13:04.422Z,101071.16
2023-05-10T06:16:14.256Z,101094.28
2023-05-10T06:19:18.538Z,101104.09
2023-05-10T06:22:24.347Z,101091.13
2023-05-10T06:25:28.530Z,101089.00
2023-05-10T06:28:35.486Z,101068.25
2023-05-10T06:31:40.337Z,101072.25
2023-05-10T06:44:57.177Z,101011.97
2023-05-10T06:52:58.503Z,100930.25
2023-05-10T06:59:58.132Z,101073.44
2023-05-10T07:03:07.435Z,101104.22
2023-05-10T07:06:29.499Z,101079.03
2023-05-10T07:09:44.371Z,101097.41
2023-05-10T07:12:53.935Z,101066.25
2023-05-10T07:16:17.936Z,101106.22
2023-05-10T07:19:47.125Z,101028.06
2023-05-10T07:27:29.163Z,101033.78
2023-05-10T07:35:53.867Z,101038.03
2023-05-10T07:48:11.001Z,101046.69
2023-05-10T08:00:48.821Z,101020.59
2023-05-10T08:03:53.213Z,101095.94
2023-05-10T08:06:58.913Z,101116.59
2023-05-10T08:10:03.366Z,101107.25
2023-05-10T08:13:12.814Z,101123.66
2023-05-10T08:16:17.508Z,101104.09
2023-05-10T08:19:24.198Z,101139.84
2023-05-10T08:22:31.182Z,101117.38
2023-05-10T08:25:40.436Z,101139.66
2023-05-10T08:28:44.333Z,101137.44
2023-05-10T08:31:48.493Z,101139.03
2023-05-10T08:34:52.484Z,101112.19
2023-05-10T08:37:58.507Z,101108.22
2023-05-10T08:41:10.827Z,101109.25
2023-05-10T08:44:21.778Z,101118.50
2023-05-10T08:47:38.468Z,101134.31
2023-05-10T08:57:04.725Z,101022.56
2023-05-10T09:06:45.584Z,101129.78
2023-05-10T09:36:22.132Z,101001.59
2023-05-10T09:39:41.286Z,101073.19
2023-05-10T09:43:14.799Z,101089.38
2023-05-10T09:46:21.977Z,101150.72
2023-05-10T09:49:30.622Z,101157.28
2023-05-10T09:53:07.569Z,101168.16
2023-05-10T09:56:12.300Z,101176.03
2023-05-10T09:59:16.347Z,101113.09
2023-05-10T10:02:31.268Z,101137.94
2023-05-10T10:05:41.134Z,101190.06
2023-05-10T10:08:50.730Z,101159.78
2023-05-10T10:11:58.473Z,101191.31
2023-05-10T10:15:05.170Z,101179.22
2023-05-10T10:22:34.843Z,101194.97
2023-05-10T10:25:39.861Z,101198.34
2023-05-10T10:29:22.118Z,101149.03
2023-05-10T10:32:35.964Z,101193.22
2023-05-10T10:35:44.230Z,101183.78
2023-05-10T10:38:57.166Z,101210.19
2023-05-10T10:42:35.624Z,101179.75
2023-05-10T10:46:33.625Z,101222.41
2023-05-10T10:50:10.170Z,101223.50
2023-05-10T10:53:18.395Z,101221.03
2023-05-10T10:56:25.598Z,101221.94
2023-05-10T10:59:32.854Z,101115.69
2023-05-10T11:02:50.083Z,101235.81
2023-05-10T11:05:59.978Z,101232.59
2023-05-10T11:09:14.370Z,101231.81
2023-05-10T11:12:21.939Z,101201.28
2023-05-10T11:15:40.590Z,101216.47
2023-05-10T11:19:04.665Z,101239.56
2023-05-10T11:22:16.918Z,101236.91
2023-05-10T11:25:31.901Z,101218.41
2023-05-10T11:28:49.761Z,101194.56
2023-05-10T11:31:53.755Z,101235.19
2023-05-10T11:34:57.988Z,101206.31
2023-05-10T11:38:02.058Z,101245.94
2023-05-10T11:41:06.265Z,101234.56
2023-05-10T11:44:14.649Z,101209.97
2023-05-10T11:47:18.885Z,101254.84
2023-05-10T11:50:23.188Z,101265.38
2023-05-10T11:53:36.769Z,101238.13
2023-05-10T11:56:49.875Z,101266.28
2023-05-10T12:00:01.120Z,101261.91
2023-05-10T12:03:14.172Z,101268.09
2023-05-10T12:06:23.829Z,101272.50
2023-05-10T12:09:42.626Z,101273.38
2023-05-10T12:12:51.787Z,101273.38
2023-05-10T12:16:20.105Z,101254.00
2023-05-10T12:19:28.675Z,101269.84
2023-05-10T12:22:35.498Z,101240.81
2023-05-10T12:25:46.868Z,101236.41
2023-05-10T12:29:00.358Z,101241.66
2023-05-10T12:32:04.584Z,101278.63
2023-05-10T12:35:11.564Z,101243.34
2023-05-10T12:38:39.801Z,101292.59
2023-05-10T12:41:46.134Z,101292.59
2023-05-10T12:44:50.187Z,101294.38
2023-05-10T12:47:54.173Z,101300.47
2023-05-10T12:50:58.244Z,101287.28
2023-05-10T12:54:02.343Z,101299.66
2023-05-10T12:57:08.469Z,101305.72
2023-05-10T13:00:12.968Z,101308.31
2023-05-10T13:03:18.972Z,101283.63
2023-05-10T13:06:26.408Z,101259.81
2023-05-10T13:09:31.396Z,101298.63
2023-05-10T13:12:36.000Z,101304.59
2023-05-10T13:15:40.245Z,101294.81
2023-05-10T13:18:44.452Z,101294.94
2023-05-10T13:21:48.803Z,101270.28
2023-05-10T13:24:54.473Z,101309.91
2023-05-10T13:27:58.984Z,101306.19
2023-05-10T13:31:03.412Z,101292.75
2023-05-10T13:34:08.083Z,101298.13
2023-05-10T13:37:12.013Z,101304.19
2023-05-10T13:40:17.516Z,101305.16
2023-05-10T13:43:23.161Z,101299.22
2023-05-10T13:46:27.583Z,101287.03
2023-05-10T13:49:35.977Z,101286.25
2023-05-10T13:52:40.215Z,101284.38
2023-05-10T13:55:44.036Z,101298.44
2023-05-10T13:58:52.331Z,101296.28
2023-05-10T14:01:56.217Z,101297.91
2023-05-10T14:05:00.304Z,101305.84
2023-05-10T14:12:08.711Z,101182.84
2023-05-10T14:15:16.075Z,101303.47
2023-05-10T14:18:20.426Z,101286.81
2023-05-10T14:21:24.945Z,101296.56
2023-05-10T14:24:31.334Z,101292.91
2023-05-10T14:27:35.306Z,101287.25
2023-05-10T14:30:39.751Z,101279.91
2023-05-10T14:33:46.079Z,101293.16
2023-05-10T14:36:50.154Z,101306.31
2023-05-10T14:39:54.220Z,101294.09
2023-05-10T14:42:58.674Z,101299.41
2023-05-10T14:46:05.572Z,101301.03
2023-05-10T14:49:09.804Z,101299.03
2023-05-10T14:52:16.146Z,101310.13
2023-05-10T14:55:20.607Z,101320.59
2023-05-10T14:58:24.504Z,101320.59
2023-05-10T15:01:30.935Z,101305.88
2023-05-10T15:04:37.804Z,101331.53
2023-05-10T15:07:42.275Z,101324.44
2023-05-10T15:10:49.253Z,101311.13
2023-05-10T15:13:56.012Z,101308.25
2023-05-10T15:17:02.599Z,101322.59
2023-05-10T15:20:07.391Z,101305.81
2023-05-10T15:23:20.505Z,101287.16
2023-05-10T15:26:24.592Z,101292.44
2023-05-10T15:29:31.535Z,101311.31
2023-05-10T15:32:35.691Z,101292.56
2023-05-10T15:35:41.265Z,101297.84
2023-05-10T15:38:50.334Z,101288.16
2023-05-10T15:41:57.156Z,101295.84
2023-05-10T15:45:01.455Z,101299.69
2023-05-10T15:48:09.469Z,101298.22
2023-05-10T15:51:13.646Z,101294.88
2023-05-10T15:54:17.651Z,101299.34
2023-05-10T15:57:27.126Z,101305.47
2023-05-10T16:00:31.212Z,101293.75
2023-05-10T16:03:38.034Z,101295.97
2023-05-10T16:06:41.923Z,101305.47
2023-05-10T16:09:46.059Z,101304.72
2023-05-10T16:12:52.358Z,101323.41
2023-05-10T16:15:59.767Z,101328.59
2023-05-10T16:19:04.750Z,101327.09
2023-05-10T16:22:08.860Z,101318.19
2023-05-10T16:25:13.784Z,101320.44
2023-05-10T16:28:22.031Z,101309.94
2023-05-10T16:31:26.477Z,101311.84
2023-05-10T16:34:30.705Z,101323.91
2023-05-10T16:37:34.586Z,101309.84
2023-05-10T16:40:40.626Z,101323.38
2023-05-10T16:43:44.510Z,101325.97
2023-05-10T16:46:49.162Z,101318.75
2023-05-10T16:49:52.984Z,101317.00
2023-05-10T16:52:57.280Z,101312.44
2023-05-10T16:56:01.352Z,101272.94
2023-05-10T16:59:05.425Z,101302.31
2023-05-10T17:02:09.802Z,101304.03
2023-05-10T17:05:14.244Z,101287.19
2023-05-10T17:08:18.377Z,101286.00
2023-05-10T17:11:22.779Z,101288.22
2023-05-10T17:14:26.625Z,101274.16
2023-05-10T17:17:35.148Z,101277.06
2023-05-10T17:20:45.859Z,101264.56
2023-05-10T17:23:54.442Z,101267.44
2023-05-10T17:27:04.340Z,101262.88
2023-05-10T17:30:13.018Z,101274.06
2023-05-10T17:33:16.928Z,101292.63
2023-05-10T17:36:21.350Z,101283.25
2023-05-10T17:39:25.445Z,101288.47
2023-05-10T17:42:36.844Z,101318.59
2023-05-10T17:45:40.868Z,101289.63
2023-05-10T17:48:44.954Z,101266.06
2023-05-10T17:51:48.895Z,101294.25
2023-05-10T17:54:55.620Z,101284.91
2023-05-10T17:58:10.745Z,101309.56
2023-05-10T18:01:18.284Z,101330.59
2023-05-10T18:04:24.605Z,101292.44
2023-05-10T18:07:33.720Z,101323.56
2023-05-10T18:10:41.451Z,101314.31
2023-05-10T18:13:45.775Z,101329.03
2023-05-10T18:16:51.665Z,101335.63
2023-05-10T18:19:59.235Z,101340.47
2023-05-10T18:23:03.353Z,101313.81
2023-05-10T18:26:12.275Z,101330.91
2023-05-10T18:29:17.207Z,101338.38
2023-05-10T18:32:25.162Z,101317.44
2023-05-10T18:35:29.253Z,101293.53
2023-05-10T18:38:33.354Z,101335.66
2023-05-10T18:41:37.960Z,101311.81
2023-05-10T18:44:42.287Z,101327.59
2023-05-10T18:47:46.208Z,101315.31
2023-05-10T18:50:58.889Z,101320.22
2023-05-10T18:54:03.133Z,101312.78
2023-05-10T18:57:07.240Z,101319.72
2023-05-10T19:00:14.646Z,101334.38
2023-05-10T19:03:19.175Z,101341.44
2023-05-10T19:06:27.004Z,101318.63
2023-05-10T19:09:31.349Z,101333.16
2023-05-10T19:12:35.496Z,101299.59
2023-05-10T19:15:42.027Z,101326.78
2023-05-10T19:18:49.675Z,101340.94
2023-05-10T19:21:55.636Z,101318.38
2023-05-10T19:25:08.101Z,101276.19
2023-05-10T19:28:14.920Z,101327.84
2023-05-10T19:31:25.504Z,101336.53
2023-05-10T19:34:29.615Z,101337.38
2023-05-10T19:37:35.957Z,101328.19
2023-05-10T19:40:40.007Z,101335.91
2023-05-10T19:43:46.775Z,101331.34
2023-05-10T19:46:51.161Z,101337.63
2023-05-10T19:50:03.097Z,101345.09
2023-05-10T19:53:10.814Z,101330.56
2023-05-10T19:56:27.702Z,101326.41
2023-05-10T19:59:43.369Z,101328.06
2023-05-10T20:02:49.081Z,101324.72
2023-05-10T20:05:53.199Z,101322.94
2023-05-10T20:08:57.175Z,101329.91
2023-05-10T20:12:02.641Z,101329.00
2023-05-10T20:15:08.887Z,101325.25
2023-05-10T20:18:15.800Z,101319.25
2023-05-10T20:21:20.490Z,101324.91
2023-05-10T20:24:26.745Z,101325.00
2023-05-10T20:27:31.202Z,101234.31
2023-05-10T20:30:43.588Z,101298.75
2023-05-10T20:33:55.398Z,101251.09
2023-05-10T20:36:59.563Z,101309.03
2023-05-10T20:40:07.832Z,101296.09
2023-05-10T20:43:14.413Z,101288.41
2023-05-10T20:46:29.759Z,101300.88
2023-05-10T20:49:38.028Z,101316.72
2023-05-10T20:52:44.553Z,101274.28
2023-05-10T20:55:53.937Z,101300.91
2023-05-10T20:58:57.981Z,101311.88
2023-05-10T21:02:27.229Z,101312.88
2023-05-10T21:05:38.966Z,101278.22
2023-05-10T21:08:48.164Z,101303.94
2023-05-10T21:12:16.210Z,101311.97
2023-05-10T21:15:25.431Z,101314.91
2023-05-10T21:18:34.169Z,101245.31
2023-05-10T21:21:40.162Z,101319.66
2023-05-10T21:24:58.551Z,101317.00
2023-05-10T21:28:07.781Z,101307.25
2023-05-10T21:31:22.426Z,101334.81
2023-05-10T21:34:27.643Z,101322.69
2023-05-10T21:37:32.075Z,101341.88
2023-05-10T21:40:36.778Z,101333.63
2023-05-10T21:43:44.442Z,101328.00
2023-05-10T21:46:51.627Z,101343.56
2023-05-10T21:49:58.470Z,101344.44
2023-05-10T21:53:02.792Z,101347.84
2023-05-10T21:56:08.049Z,101348.84
2023-05-10T21:59:15.219Z,101342.09
2023-05-10T22:02:20.888Z,101341.19
2023-05-10T22:05:24.984Z,101347.88
2023-05-10T22:08:31.573Z,101337.38
2023-05-10T22:11:35.578Z,101338.88
2023-05-10T22:14:39.506Z,101334.09
2023-05-10T22:17:43.724Z,101352.22
2023-05-10T22:20:50.675Z,101355.44
2023-05-10T22:23:54.726Z,101351.19
2023-05-10T22:26:58.641Z,101352.00
2023-05-10T22:30:02.792Z,101341.38
2023-05-10T22:33:15.101Z,101341.63
2023-05-10T22:36:19.410Z,101339.75
2023-05-10T22:39:24.261Z,101346.06
2023-05-10T22:42:28.536Z,101341.16
2023-05-10T22:45:35.646Z,101342.47
2023-05-10T22:48:39.810Z,101341.97
2023-05-10T22:51:48.953Z,101330.28
2023-05-10T22:54:53.021Z,101328.28
2023-05-10T22:57:57.284Z,101292.34
2023-05-10T23:01:01.625Z,101339.38
2023-05-10T23:04:05.686Z,101333.22
2023-05-10T23:07:10.777Z,101301.69
2023-05-10T23:10:17.359Z,101321.41
2023-05-10T23:13:22.588Z,101311.41
2023-05-10T23:16:27.054Z,101322.00
2023-05-10T23:19:31.872Z,101317.13
2023-05-10T23:22:35.825Z,101315.78
2023-05-10T23:25:40.215Z,101311.44
2023-05-10T23:28:44.117Z,101300.47
2023-05-10T23:31:53.475Z,101294.66
2023-05-10T23:39:00.566Z,101297.78
2023-05-10T23:42:08.185Z,101295.84
2023-05-10T23:45:13.016Z,101301.66
2023-05-10T23:48:20.162Z,101300.91
2023-05-10T23:51:24.280Z,101292.91
2023-05-10T23:54:31.698Z,101301.75
2023-05-10T23:57:36.650Z,101301.41
